createdAt,value
2022-12-24T00:00:13.544Z,94743.47
2022-12-24T00:03:56.420Z,94756.44
2022-12-24T00:07:39.105Z,94752.38
2022-12-24T00:11:22.123Z,94774.19
2022-12-24T00:15:05.699Z,94783.47
2022-12-24T00:18:49.773Z,94783.25
2022-12-24T00:22:32.450Z,94784.84
2022-12-24T00:26:15.897Z,94795.91
2022-12-24T00:29:58.618Z,94786.78
2022-12-24T00:33:41.347Z,94794.22
2022-12-24T00:37:25.401Z,94788.53
2022-12-24T00:41:24.628Z,94788.97
2022-12-24T00:45:09.005Z,94821.91
2022-12-24T00:48:51.714Z,94822.94
2022-12-24T00:52:36.056Z,94830.44
2022-12-24T00:56:18.956Z,94821.34
2022-12-24T01:00:01.683Z,94837.53
2022-12-24T01:03:44.595Z,94836.00
2022-12-24T01:07:27.363Z,94842.44
2022-12-24T01:11:12.319Z,94861.41
2022-12-24T01:14:57.223Z,94855.03
2022-12-24T01:18:40.038Z,94861.03
2022-12-24T01:22:22.759Z,94860.56
2022-12-24T01:26:06.355Z,94843.16
2022-12-24T01:29:50.495Z,94861.59
2022-12-24T01:33:33.159Z,94860.03
2022-12-24T01:37:15.882Z,94871.63
2022-12-24T01:41:18.559Z,94889.66
2022-12-24T01:45:36.089Z,94905.63
2022-12-24T01:49:19.028Z,94906.81
2022-12-24T01:53:01.743Z,94911.47
2022-12-24T01:56:46.590Z,94915.72
2022-12-24T02:00:29.461Z,94913.69
2022-12-24T02:04:18.737Z,94931.50
2022-12-24T02:08:02.080Z,94922.59
2022-12-24T02:11:45.161Z,94931.72
2022-12-24T02:15:31.946Z,94926.66
2022-12-24T02:19:51.279Z,94953.78
2022-12-24T02:23:56.191Z,94913.34
2022-12-24T02:27:48.348Z,94938.00
2022-12-24T02:31:38.523Z,94918.00
2022-12-24T02:35:24.469Z,94937.41
2022-12-24T02:39:10.137Z,94939.28
2022-12-24T02:42:57.718Z,94937.06
2022-12-24T02:46:41.932Z,94961.91
2022-12-24T02:50:25.487Z,94958.25
2022-12-24T02:54:08.384Z,94978.06
2022-12-24T02:58:09.378Z,94969.97
2022-12-24T03:01:59.184Z,94965.94
2022-12-24T03:05:46.762Z,94975.22
2022-12-24T03:09:33.672Z,94964.28
2022-12-24T03:13:18.025Z,94962.28
2022-12-24T03:17:04.062Z,94964.72
2022-12-24T03:20:50.504Z,94967.00
2022-12-24T03:24:33.192Z,94962.53
2022-12-24T03:28:17.591Z,94981.13
2022-12-24T03:32:04.128Z,94964.31
2022-12-24T03:35:47.123Z,94968.78
2022-12-24T03:39:29.872Z,94983.94
2022-12-24T03:43:12.702Z,95001.75
2022-12-24T03:46:55.397Z,95000.78
2022-12-24T03:50:39.473Z,95006.41
2022-12-24T03:54:22.279Z,94987.03
2022-12-24T03:58:04.989Z,94988.66
2022-12-24T04:01:47.920Z,95004.22
2022-12-24T04:05:30.809Z,95011.66
2022-12-24T04:09:14.848Z,95011.28
2022-12-24T04:12:57.530Z,95022.19
2022-12-24T04:16:40.257Z,95038.41
2022-12-24T04:20:23.026Z,95037.78
2022-12-24T04:24:06.429Z,95037.97
2022-12-24T04:27:50.487Z,95037.19
2022-12-24T04:31:33.279Z,95044.44
2022-12-24T04:35:16.069Z,95066.47
2022-12-24T04:38:58.778Z,95059.81
2022-12-24T04:42:41.449Z,95050.50
2022-12-24T04:46:27.661Z,95044.44
2022-12-24T04:50:11.485Z,95070.72
2022-12-24T04:53:54.714Z,95069.91
2022-12-24T04:57:38.010Z,95085.69
2022-12-24T05:01:22.382Z,95073.16
2022-12-24T05:05:07.369Z,95076.38
2022-12-24T05:08:50.446Z,95084.88
2022-12-24T05:12:33.166Z,95079.00
2022-12-24T05:16:16.823Z,95089.31
2022-12-24T05:19:59.587Z,95076.38
2022-12-24T05:24:01.123Z,95075.59
2022-12-24T05:27:50.730Z,95094.16
2022-12-24T05:31:34.487Z,95084.25
2022-12-24T05:35:17.344Z,95088.50
2022-12-24T05:39:01.615Z,95081.63
2022-12-24T05:42:44.296Z,95095.59
2022-12-24T05:46:27.442Z,95100.25
2022-12-24T05:50:11.535Z,95103.66
2022-12-24T05:53:54.277Z,95111.94
2022-12-24T05:57:38.393Z,95124.88
2022-12-24T06:01:21.830Z,95113.16
2022-12-24T06:05:04.836Z,95141.69
2022-12-24T06:08:51.301Z,95134.22
2022-12-24T06:12:34.007Z,95130.16
2022-12-24T06:16:19.938Z,95134.59
2022-12-24T06:20:02.770Z,95154.81
2022-12-24T06:23:46.396Z,95132.00
2022-12-24T06:27:29.156Z,95130.16
2022-12-24T06:31:13.626Z,95137.25
2022-12-24T06:34:57.894Z,95136.22
2022-12-24T06:38:40.531Z,95136.44
2022-12-24T06:42:24.370Z,95145.16
2022-12-24T06:46:07.163Z,95160.50
2022-12-24T06:49:49.897Z,95157.44
2022-12-24T06:53:34.081Z,95147.97
2022-12-24T06:57:16.800Z,95149.59
2022-12-24T07:00:59.526Z,95174.66
2022-12-24T07:04:42.228Z,95168.34
2022-12-24T07:08:25.072Z,95161.50
2022-12-24T07:12:09.205Z,95162.94
2022-12-24T07:15:58.303Z,95169.56
2022-12-24T07:19:41.006Z,95183.50
2022-12-24T07:23:23.804Z,95195.44
2022-12-24T07:27:06.598Z,95193.59
2022-12-24T07:30:50.813Z,95196.03
2022-12-24T07:34:33.571Z,95195.22
2022-12-24T07:38:16.270Z,95204.09
2022-12-24T07:41:59.008Z,95214.59
2022-12-24T07:45:41.765Z,95216.22
2022-12-24T07:49:25.850Z,95239.22
2022-12-24T07:53:08.563Z,95246.09
2022-12-24T07:56:51.356Z,95242.47
2022-12-24T08:00:34.117Z,95258.63
2022-12-24T08:04:16.855Z,95247.72
2022-12-24T08:08:00.924Z,95264.66
2022-12-24T08:11:49.881Z,95261.03
2022-12-24T08:15:35.932Z,95269.50
2022-12-24T08:19:18.843Z,95275.97
2022-12-24T08:23:02.977Z,95297.19
2022-12-24T08:26:45.700Z,95288.50
2022-12-24T08:30:28.449Z,95283.88
2022-12-24T08:34:12.273Z,95311.13
2022-12-24T08:37:55.031Z,95294.97
2022-12-24T08:41:39.082Z,95311.34
2022-12-24T08:45:22.052Z,95294.59
2022-12-24T08:49:04.743Z,95312.94
2022-12-24T08:52:47.440Z,95314.97
2022-12-24T08:56:30.152Z,95310.75
2022-12-24T09:00:15.468Z,95318.81
2022-12-24T09:03:58.152Z,95337.03
2022-12-24T09:07:40.864Z,95337.41
2022-12-24T09:11:23.749Z,95335.41
2022-12-24T09:15:08.223Z,95363.28
2022-12-24T09:18:52.566Z,95349.13
2022-12-24T09:22:35.878Z,95357.63
2022-12-24T09:26:20.848Z,95368.53
2022-12-24T09:30:04.439Z,95374.16
2022-12-24T09:33:48.806Z,95365.50
2022-12-24T09:37:32.892Z,95360.44
2022-12-24T09:41:22.036Z,95362.06
2022-12-24T09:45:08.908Z,95356.81
2022-12-24T09:48:54.412Z,95371.38
2022-12-24T09:52:42.363Z,95354.38
2022-12-24T09:56:28.496Z,95348.34
2022-12-24T10:00:18.419Z,95343.66
2022-12-24T10:04:03.426Z,95352.38
2022-12-24T10:07:52.342Z,95358.19
2022-12-24T10:11:44.542Z,95349.53
2022-12-24T10:15:30.429Z,95356.03
2022-12-24T10:19:17.030Z,95346.72
2022-12-24T10:23:04.594Z,95351.97
2022-12-24T10:26:49.824Z,95341.03
2022-12-24T10:30:32.803Z,95357.00
2022-12-24T10:34:19.744Z,95360.84
2022-12-24T10:38:04.476Z,95360.00
2022-12-24T10:41:47.683Z,95351.09
2022-12-24T10:45:37.695Z,95344.25
2022-12-24T10:49:29.594Z,95338.16
2022-12-24T10:53:19.713Z,95347.88
2022-12-24T10:57:03.551Z,95346.25
2022-12-24T11:00:50.898Z,95362.03
2022-12-24T11:04:37.561Z,95382.22
2022-12-24T11:08:21.674Z,95377.34
2022-12-24T11:12:09.258Z,95379.00
2022-12-24T11:16:01.297Z,95354.81
2022-12-24T11:19:48.641Z,95398.88
2022-12-24T11:23:32.905Z,95378.34
2022-12-24T11:27:31.961Z,95362.59
2022-12-24T11:31:20.472Z,95352.09
2022-12-24T11:35:07.697Z,95347.91
2022-12-24T11:38:55.887Z,95350.72
2022-12-24T11:42:41.837Z,95355.53
2022-12-24T11:46:38.489Z,95338.16
2022-12-24T11:50:24.225Z,95356.16
2022-12-24T11:54:11.360Z,95359.41
2022-12-24T11:57:58.503Z,95355.78
2022-12-24T12:01:49.798Z,95360.59
2022-12-24T12:05:34.526Z,95375.16
2022-12-24T12:09:22.753Z,95351.28
2022-12-24T12:13:14.665Z,95352.09
2022-12-24T12:17:03.965Z,95349.66
2022-12-24T12:20:49.002Z,95362.59
2022-12-24T12:24:37.358Z,95349.88
2022-12-24T12:28:23.534Z,95344.81
2022-12-24T12:32:09.079Z,95352.28
2022-12-24T12:35:52.660Z,95350.66
2022-12-24T12:39:37.413Z,95359.78
2022-12-24T12:43:29.127Z,95361.19
2022-12-24T12:47:25.631Z,95367.47
2022-12-24T12:51:16.599Z,95376.41
2022-12-24T12:55:09.329Z,95383.06
2022-12-24T12:58:54.994Z,95382.84
2022-12-24T13:03:01.051Z,95385.25
2022-12-24T13:07:10.269Z,95375.94
2022-12-24T13:11:16.286Z,95373.09
2022-12-24T13:15:08.941Z,95381.97
2022-12-24T13:19:02.844Z,95380.19
2022-12-24T13:22:50.626Z,95388.69
2022-12-24T13:26:37.421Z,95395.97
2022-12-24T13:30:36.517Z,95410.94
2022-12-24T13:34:35.412Z,95406.66
2022-12-24T13:38:36.472Z,95396.91
2022-12-24T13:42:51.517Z,95410.25
2022-12-24T13:46:58.963Z,95408.63
2022-12-24T13:50:45.727Z,95404.75
2022-12-24T13:54:28.896Z,95405.81
2022-12-24T13:58:20.600Z,95421.22
2022-12-24T14:02:03.989Z,95411.09
2022-12-24T14:05:48.697Z,95423.59
2022-12-24T14:09:32.283Z,95410.25
2022-12-24T14:13:56.692Z,95421.16
2022-12-24T14:17:40.485Z,95417.94
2022-12-24T14:21:24.923Z,95412.47
2022-12-24T14:25:16.426Z,95426.88
2022-12-24T14:29:03.276Z,95424.84
2022-12-24T14:32:46.714Z,95430.47
2022-12-24T14:36:29.435Z,95426.03
2022-12-24T14:40:17.010Z,95424.81
2022-12-24T14:44:09.331Z,95441.09
2022-12-24T14:47:57.741Z,95438.22
2022-12-24T14:51:44.800Z,95454.34
2022-12-24T14:55:37.819Z,95448.63
2022-12-24T14:59:21.840Z,95450.78
2022-12-24T15:03:04.606Z,95452.00
2022-12-24T15:06:49.447Z,95464.19
2022-12-24T15:10:34.601Z,95461.28
2022-12-24T15:14:18.461Z,95464.28
2022-12-24T15:18:03.293Z,95454.75
2022-12-24T15:21:46.060Z,95460.13
2022-12-24T15:25:30.911Z,95452.03
2022-12-24T15:29:20.660Z,95447.13
2022-12-24T15:33:05.282Z,95447.16
2022-12-24T15:36:48.110Z,95456.41
2022-12-24T15:40:33.242Z,95442.69
2022-12-24T15:44:17.009Z,95450.91
2022-12-24T15:48:01.861Z,95454.41
2022-12-24T15:51:45.981Z,95457.97
2022-12-24T15:55:30.655Z,95461.16
2022-12-24T15:59:31.422Z,95454.28
2022-12-24T16:03:20.289Z,95453.03
2022-12-24T16:07:06.776Z,95462.50
2022-12-24T16:10:51.004Z,95466.13
2022-12-24T16:14:34.423Z,95462.28
2022-12-24T16:18:18.848Z,95454.53
2022-12-24T16:22:24.226Z,95454.28
2022-12-24T16:26:07.159Z,95463.22
2022-12-24T16:29:50.320Z,95473.50
2022-12-24T16:33:33.092Z,95472.50
2022-12-24T16:37:17.238Z,95479.13
2022-12-24T16:41:00.030Z,95471.00
2022-12-24T16:44:42.211Z,95459.28
2022-12-24T16:48:26.362Z,95477.38
2022-12-24T16:52:17.690Z,95477.72
2022-12-24T16:56:00.483Z,95471.75
2022-12-24T16:59:43.229Z,95479.63
2022-12-24T17:03:26.034Z,95489.47
2022-12-24T17:07:09.178Z,95498.16
2022-12-24T17:10:53.497Z,95495.06
2022-12-24T17:14:36.407Z,95483.50
2022-12-24T17:18:19.111Z,95483.50
2022-12-24T17:22:01.859Z,95486.66
2022-12-24T17:25:44.647Z,95477.50
2022-12-24T17:29:28.725Z,95481.13
2022-12-24T17:33:14.952Z,95476.69
2022-12-24T17:36:58.180Z,95481.13
2022-12-24T17:40:40.942Z,95489.09
2022-12-24T17:44:23.787Z,95498.22
2022-12-24T17:48:08.003Z,95502.91
2022-12-24T17:51:51.464Z,95486.53
2022-12-24T17:55:34.157Z,95483.84
2022-12-24T17:59:16.994Z,95482.88
2022-12-24T18:02:59.861Z,95483.50
2022-12-24T18:06:49.005Z,95487.09
2022-12-24T18:10:32.384Z,95493.59
2022-12-24T18:14:15.345Z,95494.41
2022-12-24T18:17:59.315Z,95492.59
2022-12-24T18:21:42.113Z,95506.44
2022-12-24T18:25:26.143Z,95496.41
2022-12-24T18:29:09.711Z,95495.59
2022-12-24T18:32:52.458Z,95517.81
2022-12-24T18:36:35.269Z,95512.56
2022-12-24T18:40:18.157Z,95511.31
2022-12-24T18:44:02.268Z,95501.22
2022-12-24T18:47:44.977Z,95503.00
2022-12-24T18:51:30.331Z,95496.16
2022-12-24T18:55:13.240Z,95505.63
2022-12-24T18:58:57.194Z,95503.63
2022-12-24T19:02:41.332Z,95502.84
2022-12-24T19:06:24.451Z,95512.13
2022-12-24T19:10:08.189Z,95508.25
2022-12-24T19:13:52.769Z,95525.59
2022-12-24T19:17:35.464Z,95520.09
2022-12-24T19:21:19.548Z,95540.25
2022-12-24T19:25:02.310Z,95537.81
2022-12-24T19:28:45.317Z,95540.25
2022-12-24T19:32:27.975Z,95538.63
2022-12-24T19:36:12.580Z,95534.34
2022-12-24T19:39:56.606Z,95536.66
2022-12-24T19:43:41.161Z,95540.25
2022-12-24T19:47:23.789Z,95543.69
2022-12-24T19:51:07.945Z,95547.47
2022-12-24T19:54:50.687Z,95552.69
2022-12-24T19:58:35.665Z,95541.50
2022-12-24T20:02:18.577Z,95530.41
2022-12-24T20:06:01.441Z,95536.00
2022-12-24T20:09:44.194Z,95525.53
2022-12-24T20:13:26.857Z,95523.34
2022-12-24T20:17:11.253Z,95532.28
2022-12-24T20:20:53.925Z,95520.19
2022-12-24T20:24:36.640Z,95523.34
2022-12-24T20:28:19.274Z,95537.44
2022-12-24T20:32:02.033Z,95530.66
2022-12-24T20:35:46.090Z,95551.75
2022-12-24T20:39:28.784Z,95563.91
2022-12-24T20:43:11.770Z,95549.38
2022-12-24T20:46:54.549Z,95553.81
2022-12-24T20:50:41.266Z,95548.94
2022-12-24T20:54:25.326Z,95545.31
2022-12-24T20:58:08.096Z,95535.09
2022-12-24T21:01:52.092Z,95551.06
2022-12-24T21:05:34.891Z,95556.97
2022-12-24T21:09:17.588Z,95546.75
2022-12-24T21:13:01.707Z,95552.88
2022-12-24T21:16:44.662Z,95548.91
2022-12-24T21:20:30.714Z,95559.00
2022-12-24T21:24:14.024Z,95559.00
2022-12-24T21:27:56.745Z,95555.38
2022-12-24T21:31:40.741Z,95559.81
2022-12-24T21:35:23.464Z,95548.09
2022-12-24T21:39:06.180Z,95559.38
2022-12-24T21:42:48.897Z,95558.94
2022-12-24T21:46:31.682Z,95566.16
2022-12-24T21:50:33.148Z,95573.22
2022-12-24T21:54:27.160Z,95560.13
2022-12-24T21:58:09.902Z,95571.59
2022-12-24T22:01:52.767Z,95568.97
2022-12-24T22:05:36.927Z,95581.53
2022-12-24T22:09:37.011Z,95577.72
2022-12-24T22:13:20.137Z,95575.09
2022-12-24T22:17:02.831Z,95572.47
2022-12-24T22:20:47.451Z,95567.88
2022-12-24T22:24:30.103Z,95567.88
2022-12-24T22:28:13.255Z,95570.31
2022-12-24T22:31:55.964Z,95571.13
2022-12-24T22:35:39.498Z,95572.28
2022-12-24T22:39:23.864Z,95578.72
2022-12-24T22:43:06.699Z,95575.22
2022-12-24T22:46:49.434Z,95580.19
2022-12-24T22:50:32.093Z,95582.81
2022-12-24T22:54:14.799Z,95589.50
2022-12-24T22:57:58.879Z,95593.56
2022-12-24T23:01:43.097Z,95598.25
2022-12-24T23:05:26.009Z,95594.63
2022-12-24T23:09:10.369Z,95594.44
2022-12-24T23:13:14.765Z,95600.50
2022-12-24T23:16:59.483Z,95593.63
2022-12-24T23:20:46.382Z,95591.19
2022-12-24T23:24:29.465Z,95595.63
2022-12-24T23:28:12.348Z,95595.00
2022-12-24T23:31:55.375Z,95595.81
2022-12-24T23:35:39.429Z,95589.56
2022-12-24T23:39:22.309Z,95601.69
2022-12-24T23:43:05.444Z,95600.06
2022-12-24T23:46:48.123Z,95599.25
2022-12-24T23:50:30.797Z,95589.94
2022-12-24T23:54:15.203Z,95594.38
2022-12-24T23:57:57.902Z,95591.94
